createdAt,value
2023-02-08T00:00:51.921Z,0.69
2023-02-08T00:03:18.502Z,0.45
2023-02-08T00:05:48.674Z,0.49
2023-02-08T00:08:15.973Z,0.53
2023-02-08T00:10:42.962Z,0.55
2023-02-08T00:13:09.984Z,0.55
2023-02-08T00:15:41.523Z,0.46
2023-02-08T00:18:08.078Z,0.41
2023-02-08T00:20:34.594Z,0.47
2023-02-08T00:23:01.075Z,0.51
2023-02-08T00:25:27.508Z,0.42
2023-02-08T00:27:53.959Z,0.24
2023-02-08T00:30:20.632Z,0.29
2023-02-08T00:32:47.332Z,0.18
2023-02-08T00:35:14.029Z,0.16
2023-02-08T00:37:41.646Z,0.26
2023-02-08T00:40:08.870Z,0.26
2023-02-08T00:42:35.383Z,0.26
2023-02-08T00:45:01.979Z,0.24
2023-02-08T00:47:28.804Z,0.08
2023-02-08T00:49:55.931Z,0.09
2023-02-08T00:52:22.781Z,0.03
2023-02-08T00:54:49.855Z,-0.10
2023-02-08T00:57:19.692Z,-0.19
2023-02-08T00:59:48.530Z,-0.37
2023-02-08T01:02:15.768Z,-0.21
2023-02-08T01:04:42.723Z,-0.46
2023-02-08T01:07:09.382Z,-0.70
2023-02-08T01:09:35.925Z,-0.49
2023-02-08T01:12:02.789Z,-0.37
2023-02-08T01:14:29.709Z,-0.33
2023-02-08T01:16:56.249Z,-0.43
2023-02-08T01:19:22.825Z,-0.33
2023-02-08T01:21:52.125Z,-0.32
2023-02-08T01:24:21.909Z,-0.33
2023-02-08T01:26:52.932Z,-0.36
2023-02-08T01:29:22.450Z,-0.48
2023-02-08T01:31:51.866Z,-0.64
2023-02-08T01:34:21.856Z,-0.85
2023-02-08T01:36:51.130Z,-0.85
2023-02-08T01:39:19.773Z,-0.80
2023-02-08T01:41:46.765Z,-0.62
2023-02-08T01:44:19.998Z,-0.57
2023-02-08T01:46:51.683Z,-0.63
2023-02-08T01:49:24.860Z,-0.59
2023-02-08T01:52:03.769Z,-0.50
2023-02-08T01:54:38.469Z,-0.47
2023-02-08T01:57:05.068Z,-0.54
2023-02-08T02:00:01.430Z,-0.65
2023-02-08T02:02:28.441Z,-0.70
2023-02-08T02:04:55.925Z,-0.73
2023-02-08T02:07:28.600Z,-0.69
2023-02-08T02:10:07.458Z,-0.74
2023-02-08T02:12:35.505Z,-0.61
2023-02-08T02:15:02.697Z,-0.67
2023-02-08T02:17:29.284Z,-0.94
2023-02-08T02:20:23.916Z,-0.82
2023-02-08T02:22:56.354Z,-0.75
2023-02-08T02:25:38.226Z,-0.79
2023-02-08T02:28:26.367Z,-0.81
2023-02-08T02:31:15.634Z,-0.83
2023-02-08T02:34:08.463Z,-0.90
2023-02-08T02:37:25.584Z,-0.99
2023-02-08T02:40:03.235Z,-0.87
2023-02-08T02:43:07.381Z,-1.12
2023-02-08T02:45:40.137Z,-1.16
2023-02-08T02:48:12.573Z,-1.04
2023-02-08T02:50:51.358Z,-1.11
2023-02-08T02:53:20.516Z,-1.17
2023-02-08T02:56:20.002Z,-1.23
2023-02-08T02:58:46.609Z,-1.32
2023-02-08T03:01:13.204Z,-1.17
2023-02-08T03:03:40.322Z,-1.21
2023-02-08T03:06:12.232Z,-1.29
2023-02-08T03:09:08.045Z,-1.28
2023-02-08T03:11:36.961Z,-1.40
2023-02-08T03:14:19.123Z,-1.38
2023-02-08T03:17:00.665Z,-1.46
2023-02-08T03:19:56.219Z,-1.54
2023-02-08T03:22:28.788Z,-1.45
2023-02-08T03:25:03.183Z,-1.38
2023-02-08T03:28:05.823Z,-1.43
2023-02-08T03:30:38.906Z,-1.58
2023-02-08T03:33:20.372Z,-1.69
2023-02-08T03:36:19.291Z,-1.55
2023-02-08T03:38:48.635Z,-1.56
2023-02-08T03:41:22.644Z,-1.59
2023-02-08T03:44:03.529Z,-1.59
2023-02-08T03:46:38.384Z,-1.66
2023-02-08T03:49:09.729Z,-1.50
2023-02-08T03:51:39.121Z,-1.42
2023-02-08T03:54:11.463Z,-1.53
2023-02-08T03:56:43.434Z,-1.57
2023-02-08T03:59:17.179Z,-1.57
2023-02-08T04:01:48.580Z,-1.49
2023-02-08T04:04:18.686Z,-1.50
2023-02-08T04:06:45.426Z,-1.37
2023-02-08T04:09:12.012Z,-1.36
2023-02-08T04:11:38.486Z,-1.35
2023-02-08T04:14:04.954Z,-1.46
2023-02-08T04:16:31.392Z,-1.51
2023-02-08T04:19:00.762Z,-1.57
2023-02-08T04:21:29.973Z,-1.55
2023-02-08T04:23:56.397Z,-1.60
2023-02-08T04:26:22.907Z,-1.59
2023-02-08T04:28:49.402Z,-1.64
2023-02-08T04:31:15.964Z,-1.68
2023-02-08T04:33:42.626Z,-1.59
2023-02-08T04:36:09.588Z,-1.63
2023-02-08T04:38:36.196Z,-1.69
2023-02-08T04:41:02.653Z,-1.62
2023-02-08T04:43:32.020Z,-1.60
2023-02-08T04:46:01.021Z,-2.01
2023-02-08T04:48:27.607Z,-1.96
2023-02-08T04:50:58.232Z,-2.27
2023-02-08T04:53:25.621Z,-2.44
2023-02-08T04:55:52.517Z,-2.53
2023-02-08T04:58:19.051Z,-2.53
2023-02-08T05:00:46.509Z,-2.28
2023-02-08T05:03:15.104Z,-2.23
2023-02-08T05:05:41.946Z,-2.42
2023-02-08T05:08:08.460Z,-2.45
2023-02-08T05:10:34.981Z,-2.35
2023-02-08T05:13:01.445Z,-2.35
2023-02-08T05:15:27.961Z,-2.32
2023-02-08T05:17:54.507Z,-2.36
2023-02-08T05:20:21.652Z,-2.38
2023-02-08T05:22:48.149Z,-2.61
2023-02-08T05:25:14.626Z,-2.72
2023-02-08T05:27:41.064Z,-2.75
2023-02-08T05:30:21.664Z,-2.78
2023-02-08T05:32:48.106Z,-3.28
2023-02-08T05:35:14.687Z,-2.99
2023-02-08T05:37:41.168Z,-3.02
2023-02-08T05:40:08.361Z,-2.89
2023-02-08T05:42:34.853Z,-2.89
2023-02-08T05:45:01.844Z,-2.89
2023-02-08T05:47:28.297Z,-2.84
2023-02-08T05:49:54.765Z,-2.78
2023-02-08T05:52:21.195Z,-2.76
2023-02-08T05:54:47.621Z,-2.78
2023-02-08T05:57:14.133Z,-2.78
2023-02-08T05:59:40.580Z,-2.70
2023-02-08T06:02:07.222Z,-2.79
2023-02-08T06:04:38.968Z,-2.61
2023-02-08T06:07:05.682Z,-2.73
2023-02-08T06:09:34.206Z,-2.80
2023-02-08T06:12:00.729Z,-2.83
2023-02-08T06:14:27.233Z,-2.88
2023-02-08T06:16:53.656Z,-2.93
2023-02-08T06:19:20.166Z,-2.87
2023-02-08T06:21:46.718Z,-2.87
2023-02-08T06:24:13.756Z,-2.93
2023-02-08T06:26:40.177Z,-2.95
2023-02-08T06:29:06.763Z,-3.12
2023-02-08T06:31:33.214Z,-3.07
2023-02-08T06:33:59.722Z,-2.98
2023-02-08T06:36:26.417Z,-3.21
2023-02-08T06:38:53.097Z,-3.15
2023-02-08T06:41:19.795Z,-2.95
2023-02-08T06:43:46.267Z,-2.91
2023-02-08T06:46:12.839Z,-2.92
2023-02-08T06:48:39.310Z,-2.97
2023-02-08T06:51:05.752Z,-3.03
2023-02-08T06:53:32.312Z,-2.99
2023-02-08T06:55:58.713Z,-2.84
2023-02-08T06:58:25.303Z,-3.02
2023-02-08T07:00:51.909Z,-2.90
2023-02-08T07:03:18.436Z,-2.70
2023-02-08T07:05:58.691Z,-2.56
2023-02-08T07:08:30.268Z,-2.44
2023-02-08T07:10:56.714Z,-2.37
2023-02-08T07:13:23.520Z,-2.28
2023-02-08T07:15:49.998Z,-2.42
2023-02-08T07:18:16.691Z,-2.52
2023-02-08T07:20:43.104Z,-2.17
2023-02-08T07:23:09.559Z,-2.07
2023-02-08T07:25:37.198Z,-2.22
2023-02-08T07:28:03.884Z,-2.20
2023-02-08T07:30:30.609Z,-2.09
2023-02-08T07:32:57.117Z,-1.66
2023-02-08T07:35:23.910Z,-0.99
2023-02-08T07:37:50.763Z,-0.53
2023-02-08T07:40:17.508Z,0.26
2023-02-08T07:42:43.957Z,1.07
2023-02-08T07:45:10.384Z,1.97
2023-02-08T07:47:38.157Z,2.75
2023-02-08T07:50:04.985Z,3.60
2023-02-08T07:52:35.253Z,4.29
2023-02-08T07:55:01.732Z,4.89
2023-02-08T07:57:28.168Z,5.35
2023-02-08T07:59:54.589Z,5.69
2023-02-08T08:02:21.156Z,6.18
2023-02-08T08:04:47.664Z,6.43
2023-02-08T08:07:14.169Z,6.59
2023-02-08T08:09:40.596Z,6.72
2023-02-08T08:12:10.213Z,6.78
2023-02-08T08:14:40.563Z,6.56
2023-02-08T08:17:10.033Z,6.52
2023-02-08T08:19:39.973Z,6.27
2023-02-08T08:22:10.706Z,6.06
2023-02-08T08:24:40.188Z,5.60
2023-02-08T08:27:10.568Z,5.22
2023-02-08T08:29:40.222Z,4.99
2023-02-08T08:32:11.928Z,4.70
2023-02-08T08:34:42.282Z,4.63
2023-02-08T08:37:11.910Z,4.45
2023-02-08T08:39:42.637Z,4.52
2023-02-08T08:42:09.544Z,4.50
2023-02-08T08:44:37.278Z,4.68
2023-02-08T08:47:05.238Z,4.49
2023-02-08T08:49:32.012Z,4.40
2023-02-08T08:51:58.892Z,4.67
2023-02-08T08:54:25.491Z,4.71
2023-02-08T08:56:52.291Z,4.92
2023-02-08T08:59:19.153Z,4.87
2023-02-08T09:01:45.919Z,4.53
2023-02-08T09:04:12.951Z,4.60
2023-02-08T09:06:42.512Z,4.54
2023-02-08T09:09:13.643Z,4.53
2023-02-08T09:11:40.119Z,4.43
2023-02-08T09:14:12.556Z,4.44
2023-02-08T09:16:47.662Z,4.52
2023-02-08T09:19:15.851Z,4.90
2023-02-08T09:21:43.257Z,4.82
2023-02-08T09:24:10.269Z,4.81
2023-02-08T09:26:39.942Z,4.97
2023-02-08T09:29:09.829Z,5.28
2023-02-08T09:31:39.491Z,5.68
2023-02-08T09:34:12.453Z,6.06
2023-02-08T09:36:41.965Z,5.97
2023-02-08T09:39:14.743Z,6.60
2023-02-08T09:42:15.366Z,7.04
2023-02-08T09:44:55.981Z,7.26
2023-02-08T09:47:37.656Z,7.20
2023-02-08T09:50:13.664Z,7.17
2023-02-08T09:53:03.076Z,7.57
2023-02-08T09:55:51.748Z,8.19
2023-02-08T09:58:34.297Z,8.62
2023-02-08T10:01:04.068Z,8.70
2023-02-08T10:03:31.547Z,8.80
2023-02-08T10:05:58.424Z,8.75
2023-02-08T10:08:34.918Z,8.89
2023-02-08T10:11:28.547Z,9.37
2023-02-08T10:14:02.602Z,9.64
2023-02-08T10:16:52.422Z,9.27
2023-02-08T10:19:49.698Z,9.17
2023-02-08T10:22:43.632Z,9.37
2023-02-08T10:25:13.074Z,9.44
2023-02-08T10:27:57.902Z,9.53
2023-02-08T10:30:38.769Z,9.35
2023-02-08T10:33:12.332Z,9.35
2023-02-08T10:35:44.954Z,9.55
2023-02-08T10:38:43.963Z,10.16
2023-02-08T10:41:18.481Z,10.49
2023-02-08T10:43:51.894Z,10.73
2023-02-08T10:46:35.673Z,11.14
2023-02-08T10:49:20.444Z,11.65
2023-02-08T10:51:47.630Z,11.71
2023-02-08T10:54:15.442Z,11.74
2023-02-08T10:57:19.972Z,11.61
2023-02-08T10:59:49.370Z,11.29
2023-02-08T11:02:23.618Z,11.13
2023-02-08T11:05:10.273Z,11.25
2023-02-08T11:07:37.193Z,11.06
2023-02-08T11:10:16.690Z,11.71
2023-02-08T11:12:54.679Z,11.93
2023-02-08T11:15:25.942Z,11.82
2023-02-08T11:17:56.710Z,12.01
2023-02-08T11:20:31.530Z,12.30
2023-02-08T11:22:59.437Z,12.42
2023-02-08T11:25:42.516Z,12.80
2023-02-08T11:28:24.301Z,13.10
2023-02-08T11:31:19.603Z,13.16
2023-02-08T11:34:11.563Z,12.64
2023-02-08T11:36:48.347Z,12.62
2023-02-08T11:39:22.258Z,12.78
2023-02-08T11:41:51.156Z,12.63
2023-02-08T11:44:24.426Z,12.41
2023-02-08T11:46:52.252Z,12.47
2023-02-08T11:49:28.690Z,12.93
2023-02-08T11:51:55.637Z,12.47
2023-02-08T11:55:17.612Z,12.52
2023-02-08T11:57:59.137Z,12.98
2023-02-08T12:00:31.730Z,12.99
2023-02-08T12:03:05.581Z,13.32
2023-02-08T12:05:41.828Z,13.63
2023-02-08T12:08:50.390Z,13.46
2023-02-08T12:11:41.072Z,13.42
2023-02-08T12:14:25.926Z,12.75
2023-02-08T12:17:04.772Z,12.47
2023-02-08T12:20:10.796Z,12.29
2023-02-08T12:22:42.309Z,12.73
2023-02-08T12:25:26.699Z,13.00
2023-02-08T12:28:03.297Z,12.83
2023-02-08T12:30:42.037Z,12.41
2023-02-08T12:33:30.773Z,12.52
2023-02-08T12:36:18.432Z,12.73
2023-02-08T12:39:31.499Z,12.69
2023-02-08T12:42:16.153Z,12.87
2023-02-08T12:44:42.567Z,13.20
2023-02-08T12:47:58.187Z,12.33
2023-02-08T12:51:05.522Z,11.94
2023-02-08T12:53:38.705Z,11.94
2023-02-08T12:56:16.352Z,11.91
2023-02-08T12:58:49.795Z,11.65
2023-02-08T13:01:26.543Z,12.33
2023-02-08T13:03:57.793Z,12.68
2023-02-08T13:06:33.547Z,13.27
2023-02-08T13:09:13.665Z,13.37
2023-02-08T13:11:57.193Z,13.69
2023-02-08T13:15:02.921Z,13.91
2023-02-08T13:17:51.659Z,13.76
2023-02-08T13:20:33.510Z,13.76
2023-02-08T13:23:03.905Z,13.61
2023-02-08T13:25:36.066Z,13.42
2023-02-08T13:28:10.971Z,13.77
2023-02-08T13:30:40.200Z,13.75
2023-02-08T13:33:29.583Z,14.01
2023-02-08T13:35:57.954Z,13.92
2023-02-08T13:38:34.801Z,13.84
2023-02-08T13:41:09.358Z,14.11
2023-02-08T13:43:40.965Z,14.31
2023-02-08T13:46:10.511Z,14.28
2023-02-08T13:48:48.745Z,13.91
2023-02-08T13:51:33.574Z,13.83
2023-02-08T13:54:00.319Z,14.13
2023-02-08T13:56:45.208Z,14.57
2023-02-08T13:59:30.431Z,14.79
2023-02-08T14:02:22.305Z,14.67
2023-02-08T14:04:54.514Z,14.89
2023-02-08T14:07:47.265Z,15.17
2023-02-08T14:10:37.486Z,14.99
2023-02-08T14:13:17.990Z,14.68
2023-02-08T14:15:45.091Z,14.50
2023-02-08T14:18:28.814Z,14.70
2023-02-08T14:21:05.301Z,14.74
2023-02-08T14:23:34.243Z,14.91
2023-02-08T14:26:07.751Z,14.95
2023-02-08T14:28:44.101Z,14.60
2023-02-08T14:31:12.331Z,14.82
2023-02-08T14:33:54.466Z,14.83
2023-02-08T14:36:28.724Z,14.64
2023-02-08T14:39:29.096Z,14.46
2023-02-08T14:42:05.489Z,14.57
2023-02-08T14:44:37.996Z,14.53
2023-02-08T14:47:38.477Z,14.70
2023-02-08T14:50:15.792Z,14.55
2023-02-08T14:52:52.908Z,14.15
2023-02-08T14:55:27.464Z,13.85
2023-02-08T14:57:55.978Z,13.96
2023-02-08T15:00:28.592Z,13.96
2023-02-08T15:02:56.716Z,13.69
2023-02-08T15:05:28.980Z,13.56
2023-02-08T15:07:57.948Z,13.51
2023-02-08T15:10:26.751Z,13.27
2023-02-08T15:12:57.769Z,13.16
2023-02-08T15:15:37.174Z,13.03
2023-02-08T15:18:07.167Z,12.57
2023-02-08T15:20:35.776Z,12.43
2023-02-08T15:23:05.942Z,12.42
2023-02-08T15:25:35.588Z,11.85
2023-02-08T15:28:16.615Z,11.95
2023-02-08T15:30:44.032Z,11.89
2023-02-08T15:33:18.020Z,12.00
2023-02-08T15:35:45.959Z,11.67
2023-02-08T15:38:21.514Z,11.35
2023-02-08T15:41:07.537Z,11.27
2023-02-08T15:43:35.428Z,11.07
2023-02-08T15:46:05.937Z,10.93
2023-02-08T15:48:33.573Z,10.79
2023-02-08T15:51:01.210Z,10.76
2023-02-08T15:53:28.348Z,10.34
2023-02-08T15:55:59.245Z,10.27
2023-02-08T15:58:54.948Z,10.01
2023-02-08T16:01:22.383Z,9.99
2023-02-08T16:03:58.182Z,9.96
2023-02-08T16:06:37.636Z,9.68
2023-02-08T16:09:04.501Z,9.67
2023-02-08T16:11:34.395Z,9.35
2023-02-08T16:14:03.452Z,9.30
2023-02-08T16:16:35.840Z,9.27
2023-02-08T16:19:06.547Z,9.01
2023-02-08T16:21:39.884Z,8.83
2023-02-08T16:24:21.400Z,8.55
2023-02-08T16:27:07.351Z,8.27
2023-02-08T16:29:38.255Z,7.91
2023-02-08T16:32:20.883Z,7.91
2023-02-08T16:34:47.604Z,7.62
2023-02-08T16:37:33.354Z,7.47
2023-02-08T16:40:48.843Z,7.40
2023-02-08T16:43:26.043Z,7.19
2023-02-08T16:46:17.449Z,6.80
2023-02-08T16:48:48.445Z,6.58
2023-02-08T16:51:21.943Z,6.52
2023-02-08T16:53:55.058Z,6.04
2023-02-08T16:56:23.129Z,5.87
2023-02-08T16:58:49.652Z,5.93
2023-02-08T17:01:16.988Z,5.76
2023-02-08T17:03:46.224Z,5.29
2023-02-08T17:06:38.366Z,5.60
2023-02-08T17:09:06.655Z,5.32
2023-02-08T17:11:35.589Z,5.30
2023-02-08T17:14:02.724Z,5.22
2023-02-08T17:16:31.042Z,5.15
2023-02-08T17:18:58.864Z,5.15
2023-02-08T17:21:27.318Z,5.06
2023-02-08T17:23:53.836Z,4.92
2023-02-08T17:26:27.493Z,4.89
2023-02-08T17:28:55.955Z,4.86
2023-02-08T17:31:23.427Z,4.47
2023-02-08T17:33:50.215Z,4.44
2023-02-08T17:36:17.404Z,4.66
2023-02-08T17:38:46.309Z,4.58
2023-02-08T17:41:18.693Z,4.38
2023-02-08T17:43:45.449Z,4.35
2023-02-08T17:46:17.617Z,4.22
2023-02-08T17:48:45.708Z,4.05
2023-02-08T17:51:20.840Z,3.98
2023-02-08T17:53:47.624Z,3.86
2023-02-08T17:56:25.079Z,3.79
2023-02-08T17:58:53.919Z,3.75
2023-02-08T18:01:26.390Z,3.65
2023-02-08T18:03:53.278Z,3.62
2023-02-08T18:06:20.515Z,3.55
2023-02-08T18:08:47.114Z,3.49
2023-02-08T18:11:19.741Z,3.50
2023-02-08T18:13:50.935Z,3.31
2023-02-08T18:16:23.820Z,3.29
2023-02-08T18:18:50.415Z,3.19
2023-02-08T18:21:22.108Z,3.17
2023-02-08T18:23:49.989Z,3.12
2023-02-08T18:26:19.968Z,3.15
2023-02-08T18:28:47.180Z,3.09
2023-02-08T18:31:17.044Z,3.01
2023-02-08T18:33:44.051Z,2.91
2023-02-08T18:36:14.894Z,3.03
2023-02-08T18:38:47.978Z,2.83
2023-02-08T18:41:24.206Z,3.03
2023-02-08T18:43:51.285Z,2.98
2023-02-08T18:46:20.571Z,2.89
2023-02-08T18:48:48.598Z,2.53
2023-02-08T18:51:19.535Z,2.65
2023-02-08T18:53:48.803Z,2.62
2023-02-08T18:56:15.454Z,2.67
2023-02-08T18:58:45.770Z,2.53
2023-02-08T19:01:22.506Z,2.53
2023-02-08T19:03:49.410Z,2.48
2023-02-08T19:06:21.004Z,2.53
2023-02-08T19:08:47.586Z,2.37
2023-02-08T19:11:17.481Z,2.37
2023-02-08T19:13:44.704Z,2.42
2023-02-08T19:16:15.410Z,2.29
2023-02-08T19:18:45.551Z,2.34
2023-02-08T19:21:17.226Z,2.34
2023-02-08T19:23:54.911Z,2.15
2023-02-08T19:26:26.995Z,2.09
2023-02-08T19:28:55.036Z,2.03
2023-02-08T19:31:25.861Z,2.05
2023-02-08T19:33:58.709Z,1.65
2023-02-08T19:36:35.209Z,1.95
2023-02-08T19:39:06.933Z,1.74
2023-02-08T19:41:36.670Z,1.70
2023-02-08T19:44:08.283Z,1.48
2023-02-08T19:46:38.647Z,1.29
2023-02-08T19:49:06.568Z,1.15
2023-02-08T19:51:35.324Z,1.26
2023-02-08T19:54:03.170Z,1.24
2023-02-08T19:56:36.562Z,1.69
2023-02-08T19:59:05.560Z,1.56
2023-02-08T20:01:34.410Z,1.21
2023-02-08T20:04:01.793Z,1.45
2023-02-08T20:06:32.992Z,1.37
2023-02-08T20:09:00.586Z,1.09
2023-02-08T20:11:38.717Z,1.30
2023-02-08T20:14:14.762Z,1.34
2023-02-08T20:16:41.638Z,1.39
2023-02-08T20:19:11.247Z,1.12
2023-02-08T20:21:40.246Z,1.06
2023-02-08T20:24:11.522Z,1.29
2023-02-08T20:26:44.810Z,1.28
2023-02-08T20:29:14.446Z,0.67
2023-02-08T20:31:47.914Z,1.11
2023-02-08T20:34:18.779Z,0.92
2023-02-08T20:37:06.713Z,0.78
2023-02-08T20:39:36.280Z,0.45
2023-02-08T20:42:02.970Z,0.28
2023-02-08T20:44:29.617Z,0.46
2023-02-08T20:46:56.089Z,0.32
2023-02-08T20:49:25.565Z,0.31
2023-02-08T20:51:53.833Z,0.22
2023-02-08T20:54:22.874Z,0.23
2023-02-08T20:56:49.352Z,0.20
2023-02-08T20:59:18.726Z,0.19
2023-02-08T21:01:49.006Z,0.22
2023-02-08T21:04:20.202Z,0.25
2023-02-08T21:06:46.731Z,0.27
2023-02-08T21:09:17.279Z,-0.01
2023-02-08T21:11:47.391Z,0.08
2023-02-08T21:14:21.278Z,0.28
2023-02-08T21:16:51.048Z,0.20
2023-02-08T21:19:20.471Z,0.16
2023-02-08T21:21:51.477Z,0.13
2023-02-08T21:24:18.211Z,-0.04
2023-02-08T21:26:47.541Z,0.01
2023-02-08T21:29:18.032Z,-0.08
2023-02-08T21:31:51.649Z,-0.11
2023-02-08T21:34:19.615Z,0.05
2023-02-08T21:36:46.144Z,-0.26
2023-02-08T21:39:17.809Z,-0.22
2023-02-08T21:41:48.274Z,-0.05
2023-02-08T21:44:15.658Z,-0.09
2023-02-08T21:46:45.837Z,0.06
2023-02-08T21:49:31.138Z,0.18
2023-02-08T21:52:16.277Z,0.10
2023-02-08T21:54:45.368Z,0.09
2023-02-08T21:57:26.722Z,0.24
2023-02-08T21:59:57.118Z,0.17
2023-02-08T22:02:27.744Z,0.25
2023-02-08T22:04:57.260Z,0.27
2023-02-08T22:07:25.605Z,0.11
2023-02-08T22:09:52.660Z,0.12
2023-02-08T22:12:21.666Z,0.28
2023-02-08T22:14:49.493Z,0.34
2023-02-08T22:17:19.100Z,0.16
2023-02-08T22:19:48.672Z,0.15
2023-02-08T22:22:17.946Z,0.20
2023-02-08T22:24:46.743Z,0.06
2023-02-08T22:27:13.620Z,0.12
2023-02-08T22:29:40.558Z,0.17
2023-02-08T22:32:10.008Z,0.17
2023-02-08T22:34:40.253Z,0.12
2023-02-08T22:37:06.998Z,0.11
2023-02-08T22:39:36.055Z,0.10
2023-02-08T22:42:08.314Z,-0.13
2023-02-08T22:44:36.491Z,-0.19
2023-02-08T22:47:04.862Z,-0.19
2023-02-08T22:49:31.411Z,-0.30
2023-02-08T22:51:58.340Z,-0.56
2023-02-08T22:54:24.913Z,-0.60
2023-02-08T22:56:51.539Z,-0.78
2023-02-08T22:59:21.125Z,-0.95
2023-02-08T23:01:50.773Z,-0.80
2023-02-08T23:04:20.349Z,-0.74
2023-02-08T23:06:48.824Z,-0.85
2023-02-08T23:09:15.278Z,-0.81
2023-02-08T23:11:41.767Z,-0.99
2023-02-08T23:14:08.644Z,-1.03
2023-02-08T23:16:35.703Z,-1.03
2023-02-08T23:19:05.071Z,-1.12
2023-02-08T23:21:32.067Z,-1.20
2023-02-08T23:23:58.538Z,-1.22
2023-02-08T23:26:25.928Z,-0.88
2023-02-08T23:28:54.017Z,-1.06
2023-02-08T23:31:23.501Z,-1.05
2023-02-08T23:33:53.305Z,-1.18
2023-02-08T23:36:23.640Z,-1.10
2023-02-08T23:38:53.753Z,-1.18
2023-02-08T23:41:23.953Z,-1.21
2023-02-08T23:43:53.493Z,-0.95
2023-02-08T23:46:25.831Z,-1.05
2023-02-08T23:48:52.707Z,-0.98
2023-02-08T23:51:22.475Z,-1.07
2023-02-08T23:53:54.121Z,-0.75
2023-02-08T23:56:26.188Z,-0.79
2023-02-08T23:58:55.025Z,-0.90
